createdAt,value
2022-10-16T00:01:19.259Z,87.58
2022-10-16T00:03:48.594Z,88.11
2022-10-16T00:06:17.591Z,89.69
2022-10-16T00:08:45.408Z,88.84
2022-10-16T00:11:18.698Z,80.77
2022-10-16T00:13:47.824Z,75.44
2022-10-16T00:16:15.287Z,76.76
2022-10-16T00:18:43.357Z,77.61
2022-10-16T00:21:16.833Z,78.26
2022-10-16T00:23:44.730Z,76.23
2022-10-16T00:26:16.497Z,75.64
2022-10-16T00:28:46.363Z,75.80
2022-10-16T00:31:14.791Z,75.79
2022-10-16T00:33:42.839Z,75.62
2022-10-16T00:36:14.105Z,75.16
2022-10-16T00:38:41.729Z,75.15
2022-10-16T00:41:13.612Z,75.54
2022-10-16T00:43:56.238Z,75.80
2022-10-16T00:46:29.142Z,74.65
2022-10-16T00:49:02.805Z,72.91
2022-10-16T00:51:53.769Z,74.49
2022-10-16T00:54:24.927Z,72.11
2022-10-16T00:56:52.669Z,70.44
2022-10-16T00:59:26.442Z,69.25
2022-10-16T01:01:55.260Z,69.07
2022-10-16T01:04:23.818Z,69.47
2022-10-16T01:07:15.403Z,68.52
2022-10-16T01:10:19.165Z,68.58
2022-10-16T01:13:34.244Z,70.48
2022-10-16T01:16:59.280Z,68.65
2022-10-16T01:19:52.481Z,68.22
2022-10-16T01:22:24.994Z,68.90
2022-10-16T01:24:56.215Z,70.00
2022-10-16T01:27:36.382Z,71.55
2022-10-16T01:30:24.665Z,71.82
2022-10-16T01:32:58.709Z,71.83
2022-10-16T01:35:33.567Z,71.48
2022-10-16T01:38:28.107Z,71.56
2022-10-16T01:41:00.937Z,72.76
2022-10-16T01:43:54.570Z,73.27
2022-10-16T01:46:24.151Z,73.97
2022-10-16T01:48:53.632Z,74.13
2022-10-16T01:51:22.060Z,74.73
2022-10-16T01:53:54.636Z,74.31
2022-10-16T01:56:24.432Z,74.52
2022-10-16T01:58:56.982Z,74.68
2022-10-16T02:01:28.099Z,74.64
2022-10-16T02:03:59.737Z,75.05
2022-10-16T02:06:27.429Z,75.79
2022-10-16T02:08:55.341Z,76.21
2022-10-16T02:11:24.515Z,76.13
2022-10-16T02:14:05.411Z,76.18
2022-10-16T02:16:45.273Z,76.12
2022-10-16T02:19:14.370Z,76.27
2022-10-16T02:21:48.331Z,73.39
2022-10-16T02:24:38.434Z,70.90
2022-10-16T02:27:14.743Z,70.66
2022-10-16T02:29:49.645Z,69.67
2022-10-16T02:32:20.906Z,71.93
2022-10-16T02:34:50.607Z,72.00
2022-10-16T02:37:19.399Z,72.48
2022-10-16T02:39:46.854Z,71.14
2022-10-16T02:42:15.608Z,69.84
2022-10-16T02:44:42.952Z,69.30
2022-10-16T02:47:10.332Z,69.82
2022-10-16T02:49:37.652Z,70.92
2022-10-16T02:52:05.111Z,70.97
2022-10-16T02:54:32.446Z,70.01
2022-10-16T02:56:59.792Z,70.67
2022-10-16T02:59:27.061Z,71.27
2022-10-16T03:01:54.384Z,71.67
2022-10-16T03:04:21.778Z,72.28
2022-10-16T03:06:49.027Z,73.08
2022-10-16T03:09:16.458Z,73.54
2022-10-16T03:11:43.802Z,74.23
2022-10-16T03:14:11.172Z,74.41
2022-10-16T03:16:38.882Z,74.53
2022-10-16T03:19:06.271Z,74.56
2022-10-16T03:21:33.591Z,75.10
2022-10-16T03:24:00.970Z,75.46
2022-10-16T03:26:28.280Z,75.36
2022-10-16T03:28:55.710Z,75.40
2022-10-16T03:31:23.559Z,75.26
2022-10-16T03:33:50.913Z,74.71
2022-10-16T03:36:18.487Z,73.82
2022-10-16T03:38:45.822Z,73.86
2022-10-16T03:41:13.151Z,71.88
2022-10-16T03:43:40.574Z,70.58
2022-10-16T03:46:07.923Z,71.42
2022-10-16T03:48:35.167Z,69.83
2022-10-16T03:51:02.585Z,69.07
2022-10-16T03:53:30.047Z,69.35
2022-10-16T03:55:57.293Z,68.82
2022-10-16T03:58:24.646Z,68.24
2022-10-16T04:00:52.122Z,67.66
2022-10-16T04:03:20.320Z,67.87
2022-10-16T04:05:47.626Z,68.02
2022-10-16T04:08:15.005Z,69.20
2022-10-16T04:10:44.990Z,69.34
2022-10-16T04:13:13.493Z,68.83
2022-10-16T04:15:40.936Z,69.06
2022-10-16T04:18:08.588Z,68.46
2022-10-16T04:20:35.966Z,69.87
2022-10-16T04:23:03.752Z,70.34
2022-10-16T04:25:31.896Z,70.68
2022-10-16T04:27:59.375Z,71.36
2022-10-16T04:30:27.035Z,71.71
2022-10-16T04:32:54.941Z,72.58
2022-10-16T04:35:23.005Z,72.75
2022-10-16T04:37:51.874Z,72.64
2022-10-16T04:40:19.192Z,71.52
2022-10-16T04:42:46.633Z,70.84
2022-10-16T04:45:16.421Z,71.33
2022-10-16T04:47:44.920Z,71.68
2022-10-16T04:50:12.417Z,71.54
2022-10-16T04:52:39.985Z,71.34
2022-10-16T04:55:08.265Z,69.94
2022-10-16T04:57:35.627Z,69.16
2022-10-16T05:00:04.491Z,68.42
2022-10-16T05:02:33.175Z,68.81
2022-10-16T05:05:00.765Z,68.87
2022-10-16T05:07:28.430Z,69.22
2022-10-16T05:09:55.922Z,68.42
2022-10-16T05:12:24.969Z,68.14
2022-10-16T05:14:52.374Z,67.30
2022-10-16T05:17:19.677Z,67.58
2022-10-16T05:19:47.133Z,67.95
2022-10-16T05:22:14.486Z,67.95
2022-10-16T05:24:41.809Z,68.63
2022-10-16T05:27:09.144Z,69.03
2022-10-16T05:29:36.453Z,69.61
2022-10-16T05:32:04.139Z,70.10
2022-10-16T05:34:31.552Z,72.18
2022-10-16T05:36:58.867Z,71.36
2022-10-16T05:39:26.157Z,68.66
2022-10-16T05:41:54.688Z,67.52
2022-10-16T05:44:23.088Z,67.32
2022-10-16T05:46:50.408Z,67.26
2022-10-16T05:49:17.764Z,67.38
2022-10-16T05:51:45.197Z,67.37
2022-10-16T05:54:12.832Z,66.84
2022-10-16T05:56:40.346Z,66.56
2022-10-16T05:59:07.817Z,66.02
2022-10-16T06:01:36.547Z,65.86
2022-10-16T06:04:04.256Z,64.92
2022-10-16T06:06:32.193Z,66.44
2022-10-16T06:09:00.999Z,67.20
2022-10-16T06:11:31.270Z,67.60
2022-10-16T06:14:02.987Z,66.21
2022-10-16T06:16:30.780Z,68.26
2022-10-16T06:18:58.494Z,69.68
2022-10-16T06:21:26.946Z,71.12
2022-10-16T06:23:55.862Z,71.46
2022-10-16T06:26:25.564Z,72.16
2022-10-16T06:28:52.949Z,71.30
2022-10-16T06:31:20.446Z,71.14
2022-10-16T06:33:52.468Z,72.11
2022-10-16T06:36:20.308Z,71.86
2022-10-16T06:38:49.556Z,70.02
2022-10-16T06:41:19.737Z,70.60
2022-10-16T06:43:48.122Z,70.60
2022-10-16T06:46:19.473Z,70.90
2022-10-16T06:48:47.054Z,70.46
2022-10-16T06:51:19.211Z,69.93
2022-10-16T06:54:06.409Z,68.89
2022-10-16T06:56:37.163Z,70.39
2022-10-16T06:59:04.710Z,69.73
2022-10-16T07:01:32.643Z,68.34
2022-10-16T07:04:00.159Z,67.00
2022-10-16T07:06:28.580Z,67.01
2022-10-16T07:08:55.959Z,67.08
2022-10-16T07:11:25.050Z,67.74
2022-10-16T07:13:56.057Z,66.68
2022-10-16T07:16:29.432Z,66.23
2022-10-16T07:19:01.304Z,65.93
2022-10-16T07:21:32.011Z,64.70
2022-10-16T07:24:02.515Z,65.18
2022-10-16T07:26:32.554Z,64.33
2022-10-16T07:29:00.298Z,63.68
2022-10-16T07:31:28.665Z,64.02
2022-10-16T07:33:56.502Z,64.03
2022-10-16T07:36:23.939Z,63.92
2022-10-16T07:38:57.172Z,62.76
2022-10-16T07:41:27.423Z,62.48
2022-10-16T07:43:55.873Z,61.16
2022-10-16T07:46:24.582Z,60.00
2022-10-16T07:48:52.116Z,59.11
2022-10-16T07:51:22.533Z,58.33
2022-10-16T07:53:50.866Z,59.05
2022-10-16T07:56:19.759Z,58.97
2022-10-16T07:58:47.232Z,60.03
2022-10-16T08:01:16.541Z,59.62
2022-10-16T08:03:45.715Z,59.52
2022-10-16T08:06:13.299Z,59.04
2022-10-16T08:08:40.869Z,57.63
2022-10-16T08:11:09.343Z,58.82
2022-10-16T08:13:36.937Z,59.04
2022-10-16T08:16:09.041Z,56.82
2022-10-16T08:18:37.885Z,56.82
2022-10-16T08:21:06.414Z,55.71
2022-10-16T08:23:34.880Z,55.18
2022-10-16T08:26:08.205Z,55.61
2022-10-16T08:28:36.718Z,54.47
2022-10-16T08:31:23.309Z,52.41
2022-10-16T08:33:50.927Z,51.94
2022-10-16T08:36:18.446Z,51.23
2022-10-16T08:38:48.610Z,51.44
2022-10-16T08:42:04.698Z,50.30
2022-10-16T08:44:47.213Z,50.01
2022-10-16T08:47:35.491Z,50.30
2022-10-16T08:50:11.629Z,51.34
2022-10-16T08:52:43.349Z,49.91
2022-10-16T08:55:42.887Z,48.96
2022-10-16T08:58:22.958Z,47.71
2022-10-16T09:01:14.645Z,48.23
2022-10-16T09:04:23.887Z,46.32
2022-10-16T09:07:18.447Z,46.57
2022-10-16T09:10:31.618Z,44.09
2022-10-16T09:13:36.088Z,41.08
2022-10-16T09:16:25.754Z,39.90
2022-10-16T09:19:06.313Z,40.17
2022-10-16T09:21:39.457Z,40.81
2022-10-16T09:24:12.595Z,41.21
2022-10-16T09:26:40.013Z,41.00
2022-10-16T09:29:07.574Z,40.91
2022-10-16T09:31:38.193Z,41.63
2022-10-16T09:34:08.160Z,41.48
2022-10-16T09:36:44.359Z,39.84
2022-10-16T09:39:13.315Z,41.40
2022-10-16T09:41:46.593Z,41.15
2022-10-16T09:44:30.876Z,41.14
2022-10-16T09:47:24.816Z,41.90
2022-10-16T09:49:54.434Z,42.00
2022-10-16T09:52:22.360Z,39.88
2022-10-16T09:55:00.237Z,39.88
2022-10-16T09:57:31.396Z,40.38
2022-10-16T10:00:00.171Z,41.78
2022-10-16T10:02:44.714Z,42.50
2022-10-16T10:05:24.534Z,41.45
2022-10-16T10:08:01.294Z,41.44
2022-10-16T10:10:31.623Z,40.44
2022-10-16T10:12:59.739Z,40.83
2022-10-16T10:15:30.525Z,40.25
2022-10-16T10:17:59.424Z,39.96
2022-10-16T10:20:33.950Z,39.78
2022-10-16T10:23:03.039Z,40.06
2022-10-16T10:25:55.727Z,40.56
2022-10-16T10:28:39.864Z,40.58
2022-10-16T10:31:34.432Z,38.73
2022-10-16T10:34:43.578Z,38.74
2022-10-16T10:37:44.617Z,39.11
2022-10-16T10:40:32.165Z,38.76
2022-10-16T10:43:32.221Z,38.22
2022-10-16T10:46:08.017Z,38.39
2022-10-16T10:49:09.781Z,38.86
2022-10-16T10:51:43.828Z,39.21
2022-10-16T10:54:22.420Z,38.71
2022-10-16T10:56:53.483Z,38.82
2022-10-16T10:59:26.522Z,39.04
2022-10-16T11:01:57.681Z,39.33
2022-10-16T11:04:41.842Z,40.08
2022-10-16T11:07:19.877Z,39.60
2022-10-16T11:09:54.723Z,39.74
2022-10-16T11:12:48.610Z,39.94
2022-10-16T11:15:26.674Z,39.07
2022-10-16T11:18:01.652Z,39.68
2022-10-16T11:20:36.151Z,39.70
2022-10-16T11:23:23.901Z,39.75
2022-10-16T11:25:52.897Z,39.85
2022-10-16T11:28:44.311Z,40.51
2022-10-16T11:31:22.384Z,40.67
2022-10-16T11:34:07.264Z,40.86
2022-10-16T11:36:45.936Z,39.66
2022-10-16T11:39:26.496Z,39.63
2022-10-16T11:42:04.743Z,38.36
2022-10-16T11:45:02.194Z,38.31
2022-10-16T11:48:06.072Z,37.55
2022-10-16T11:50:44.828Z,37.19
2022-10-16T11:53:23.320Z,35.03
2022-10-16T11:55:50.906Z,33.52
2022-10-16T11:58:24.947Z,33.83
2022-10-16T12:01:10.829Z,34.07
2022-10-16T12:03:48.063Z,34.39
2022-10-16T12:06:28.932Z,37.20
2022-10-16T12:08:57.889Z,37.02
2022-10-16T12:11:35.235Z,37.09
2022-10-16T12:14:09.327Z,37.88
2022-10-16T12:16:39.842Z,38.26
2022-10-16T12:19:17.379Z,37.68
2022-10-16T12:21:46.221Z,38.22
2022-10-16T12:24:32.401Z,38.17
2022-10-16T12:27:00.124Z,38.04
2022-10-16T12:29:39.961Z,38.53
2022-10-16T12:32:46.771Z,37.90
2022-10-16T12:35:28.078Z,38.91
2022-10-16T12:38:06.019Z,40.00
2022-10-16T12:40:37.804Z,39.78
2022-10-16T12:43:45.704Z,40.00
2022-10-16T12:46:12.922Z,39.04
2022-10-16T12:48:55.321Z,40.74
2022-10-16T12:51:29.489Z,41.54
2022-10-16T12:54:04.551Z,41.14
2022-10-16T12:56:56.090Z,41.04
2022-10-16T13:00:00.532Z,40.52
2022-10-16T13:02:50.846Z,41.36
2022-10-16T13:05:45.840Z,41.07
2022-10-16T13:08:40.935Z,41.89
2022-10-16T13:11:29.186Z,41.60
2022-10-16T13:14:23.345Z,42.74
2022-10-16T13:17:14.999Z,43.52
2022-10-16T13:19:56.761Z,45.11
2022-10-16T13:23:05.393Z,45.05
2022-10-16T13:25:48.811Z,45.15
2022-10-16T13:28:20.699Z,45.19
2022-10-16T13:30:56.211Z,45.05
2022-10-16T13:33:35.228Z,45.48
2022-10-16T13:36:03.711Z,46.50
2022-10-16T13:38:37.143Z,46.61
2022-10-16T13:41:16.387Z,46.40
2022-10-16T13:43:50.875Z,46.58
2022-10-16T13:46:20.642Z,46.42
2022-10-16T13:49:23.483Z,46.87
2022-10-16T13:52:01.385Z,46.87
2022-10-16T13:54:32.592Z,46.73
2022-10-16T13:57:22.553Z,46.81
2022-10-16T13:59:54.837Z,46.73
2022-10-16T14:02:29.105Z,46.62
2022-10-16T14:04:58.999Z,46.57
2022-10-16T14:07:32.831Z,46.42
2022-10-16T14:10:24.557Z,46.40
2022-10-16T14:13:04.413Z,45.91
2022-10-16T14:15:34.070Z,46.34
2022-10-16T14:18:01.603Z,46.43
2022-10-16T14:20:34.469Z,47.66
2022-10-16T14:23:20.301Z,48.09
2022-10-16T14:25:48.291Z,49.24
2022-10-16T14:28:24.300Z,50.21
2022-10-16T14:31:01.351Z,50.76
2022-10-16T14:33:31.532Z,50.63
2022-10-16T14:36:12.660Z,50.82
2022-10-16T14:38:42.811Z,50.82
2022-10-16T14:41:10.958Z,51.13
2022-10-16T14:43:41.207Z,51.27
2022-10-16T14:46:16.043Z,51.08
2022-10-16T14:48:52.231Z,50.96
2022-10-16T14:51:21.024Z,51.13
2022-10-16T14:53:48.993Z,49.73
2022-10-16T14:56:22.326Z,49.72
2022-10-16T14:58:51.941Z,49.88
2022-10-16T15:01:22.013Z,49.75
2022-10-16T15:03:50.007Z,50.65
2022-10-16T15:06:17.829Z,51.10
2022-10-16T15:08:45.515Z,51.40
2022-10-16T15:11:18.271Z,51.12
2022-10-16T15:13:45.804Z,51.94
2022-10-16T15:16:16.145Z,52.70
2022-10-16T15:18:44.132Z,53.20
2022-10-16T15:21:26.093Z,54.33
2022-10-16T15:23:53.547Z,55.33
2022-10-16T15:26:20.942Z,55.35
2022-10-16T15:28:48.395Z,56.52
2022-10-16T15:31:15.881Z,57.64
2022-10-16T15:33:43.279Z,58.17
2022-10-16T15:36:10.804Z,58.60
2022-10-16T15:38:38.211Z,59.96
2022-10-16T15:41:05.835Z,61.68
2022-10-16T15:43:33.107Z,62.34
2022-10-16T15:46:02.760Z,63.26
2022-10-16T15:48:31.131Z,63.83
2022-10-16T15:50:58.563Z,64.46
2022-10-16T15:53:25.954Z,64.61
2022-10-16T15:55:53.309Z,64.97
2022-10-16T15:58:20.757Z,65.29
2022-10-16T16:00:57.997Z,65.55
2022-10-16T16:03:25.733Z,66.27
2022-10-16T16:05:53.266Z,66.45
2022-10-16T16:08:20.692Z,66.86
2022-10-16T16:11:02.125Z,67.29
2022-10-16T16:13:29.775Z,67.64
2022-10-16T16:15:57.296Z,68.50
2022-10-16T16:18:25.092Z,68.83
2022-10-16T16:20:53.089Z,69.70
2022-10-16T16:23:21.200Z,70.01
2022-10-16T16:26:07.453Z,70.13
2022-10-16T16:28:35.537Z,71.23
2022-10-16T16:31:03.348Z,71.76
2022-10-16T16:33:31.989Z,72.36
2022-10-16T16:36:00.903Z,72.30
2022-10-16T16:38:29.478Z,72.81
2022-10-16T16:40:57.126Z,73.29
2022-10-16T16:43:26.261Z,73.66
2022-10-16T16:45:55.562Z,74.21
2022-10-16T16:48:23.431Z,74.62
2022-10-16T16:50:50.689Z,74.85
2022-10-16T16:53:18.377Z,75.19
2022-10-16T16:55:47.097Z,75.65
2022-10-16T16:58:14.499Z,76.04
2022-10-16T17:00:56.625Z,76.43
2022-10-16T17:03:30.986Z,77.57
2022-10-16T17:06:03.123Z,77.92
2022-10-16T17:08:31.238Z,78.23
2022-10-16T17:10:58.987Z,78.33
2022-10-16T17:13:28.332Z,78.68
2022-10-16T17:15:56.132Z,79.74
2022-10-16T17:18:25.152Z,79.94
2022-10-16T17:20:52.715Z,79.94
2022-10-16T17:23:21.160Z,80.16
2022-10-16T17:25:48.561Z,80.36
2022-10-16T17:28:15.854Z,81.12
2022-10-16T17:30:44.327Z,81.44
2022-10-16T17:33:13.401Z,81.25
2022-10-16T17:35:43.645Z,82.04
2022-10-16T17:38:12.821Z,81.95
2022-10-16T17:40:40.735Z,82.12
2022-10-16T17:43:08.565Z,81.66
2022-10-16T17:45:39.525Z,81.79
2022-10-16T17:48:07.309Z,82.45
2022-10-16T17:50:37.461Z,82.47
2022-10-16T17:53:04.792Z,83.20
2022-10-16T17:55:32.148Z,82.95
2022-10-16T17:57:59.477Z,83.26
2022-10-16T18:00:26.921Z,83.17
2022-10-16T18:02:54.219Z,82.89
2022-10-16T18:05:21.538Z,83.31
2022-10-16T18:07:48.895Z,83.42
2022-10-16T18:10:18.841Z,82.50
2022-10-16T18:12:58.173Z,81.92
2022-10-16T18:15:25.511Z,82.68
2022-10-16T18:17:52.881Z,82.88
2022-10-16T18:20:20.963Z,83.07
2022-10-16T18:22:48.411Z,83.32
2022-10-16T18:25:15.681Z,80.88
2022-10-16T18:27:43.021Z,79.59
2022-10-16T18:30:10.673Z,79.51
2022-10-16T18:32:38.060Z,80.58
2022-10-16T18:35:05.990Z,80.76
2022-10-16T18:37:36.802Z,81.22
2022-10-16T18:40:05.158Z,81.56
2022-10-16T18:42:32.500Z,81.44
2022-10-16T18:45:00.768Z,80.65
2022-10-16T18:47:29.902Z,79.40
2022-10-16T18:49:57.431Z,79.35
2022-10-16T18:52:27.083Z,78.85
2022-10-16T18:54:57.671Z,78.29
2022-10-16T18:57:28.317Z,78.61
2022-10-16T18:59:56.879Z,78.59
2022-10-16T19:02:24.617Z,78.88
2022-10-16T19:04:52.148Z,79.21
2022-10-16T19:07:19.473Z,78.92
2022-10-16T19:09:46.856Z,79.40
2022-10-16T19:12:14.112Z,79.89
2022-10-16T19:14:41.546Z,80.32
2022-10-16T19:17:09.062Z,80.14
2022-10-16T19:19:38.522Z,80.40
2022-10-16T19:22:14.192Z,80.39
2022-10-16T19:24:42.180Z,79.33
2022-10-16T19:27:09.594Z,79.90
2022-10-16T19:29:37.060Z,80.31
2022-10-16T19:32:07.254Z,80.69
2022-10-16T19:34:35.036Z,81.21
2022-10-16T19:37:02.379Z,81.21
2022-10-16T19:39:29.864Z,81.60
2022-10-16T19:41:57.290Z,81.45
2022-10-16T19:44:24.722Z,81.14
2022-10-16T19:46:52.068Z,80.53
2022-10-16T19:49:21.969Z,80.28
2022-10-16T19:51:52.084Z,80.70
2022-10-16T19:54:20.239Z,81.56
2022-10-16T19:56:47.748Z,82.09
2022-10-16T19:59:19.283Z,82.38
2022-10-16T20:01:47.435Z,82.74
2022-10-16T20:04:15.442Z,82.84
2022-10-16T20:06:43.010Z,83.51
2022-10-16T20:09:10.602Z,82.44
2022-10-16T20:11:38.632Z,82.75
2022-10-16T20:14:06.058Z,83.06
2022-10-16T20:16:33.643Z,83.41
2022-10-16T20:19:01.635Z,83.34
2022-10-16T20:21:31.993Z,83.41
2022-10-16T20:24:01.502Z,82.17
2022-10-16T20:26:29.060Z,82.32
2022-10-16T20:28:56.668Z,83.42
2022-10-16T20:31:27.434Z,83.72
2022-10-16T20:33:56.830Z,83.94
2022-10-16T20:36:26.517Z,83.53
2022-10-16T20:38:54.581Z,83.27
2022-10-16T20:41:22.092Z,82.93
2022-10-16T20:43:52.635Z,83.45
2022-10-16T20:46:25.272Z,83.59
2022-10-16T20:48:54.395Z,83.51
2022-10-16T20:51:25.127Z,84.03
2022-10-16T20:53:58.073Z,83.99
2022-10-16T20:56:26.815Z,84.15
2022-10-16T20:58:54.459Z,84.55
2022-10-16T21:01:24.476Z,84.49
2022-10-16T21:03:55.044Z,84.49
2022-10-16T21:06:23.684Z,84.55
2022-10-16T21:08:51.728Z,84.76
2022-10-16T21:11:25.119Z,85.02
2022-10-16T21:13:54.541Z,84.88
2022-10-16T21:16:22.805Z,85.13
2022-10-16T21:18:50.432Z,85.52
2022-10-16T21:21:27.318Z,85.71
2022-10-16T21:23:55.152Z,85.40
2022-10-16T21:26:26.568Z,85.51
2022-10-16T21:28:56.833Z,85.15
2022-10-16T21:31:24.507Z,84.79
2022-10-16T21:33:53.143Z,82.92
2022-10-16T21:36:22.741Z,83.07
2022-10-16T21:38:50.380Z,82.72
2022-10-16T21:41:17.573Z,83.32
2022-10-16T21:43:45.296Z,83.49
2022-10-16T21:46:13.446Z,83.66
2022-10-16T21:48:43.024Z,83.36
2022-10-16T21:51:12.530Z,83.55
2022-10-16T21:53:40.705Z,82.58
2022-10-16T21:56:18.606Z,82.96
2022-10-16T21:58:46.136Z,82.32
2022-10-16T22:01:17.947Z,82.55
2022-10-16T22:03:46.734Z,82.99
2022-10-16T22:06:16.184Z,83.80
2022-10-16T22:08:45.411Z,83.91
2022-10-16T22:11:22.067Z,83.78
2022-10-16T22:13:54.084Z,83.12
2022-10-16T22:16:26.844Z,83.36
2022-10-16T22:18:56.051Z,84.07
2022-10-16T22:21:24.581Z,84.65
2022-10-16T22:23:51.959Z,83.71
2022-10-16T22:26:19.354Z,83.28
2022-10-16T22:28:46.783Z,82.54
2022-10-16T22:31:15.241Z,81.97
2022-10-16T22:33:43.001Z,81.20
2022-10-16T22:36:15.534Z,81.79
2022-10-16T22:38:42.878Z,81.79
2022-10-16T22:41:13.318Z,82.11
2022-10-16T22:43:44.143Z,81.37
2022-10-16T22:46:20.287Z,80.80
2022-10-16T22:48:47.731Z,80.67
2022-10-16T22:51:17.081Z,80.78
2022-10-16T22:53:46.347Z,80.89
2022-10-16T22:56:15.252Z,81.14
2022-10-16T22:58:42.780Z,81.46
2022-10-16T23:01:13.394Z,81.70
2022-10-16T23:03:43.614Z,82.05
2022-10-16T23:06:11.890Z,82.00
2022-10-16T23:08:39.433Z,81.92
2022-10-16T23:11:12.701Z,79.40
2022-10-16T23:13:45.589Z,78.58
2022-10-16T23:16:15.652Z,78.73
2022-10-16T23:18:43.874Z,77.41
2022-10-16T23:21:14.293Z,76.20
2022-10-16T23:23:42.679Z,76.39
2022-10-16T23:26:16.830Z,75.45
2022-10-16T23:28:44.923Z,74.95
2022-10-16T23:31:13.942Z,75.63
2022-10-16T23:33:41.683Z,76.39
2022-10-16T23:36:12.438Z,75.60
2022-10-16T23:38:40.161Z,75.85
2022-10-16T23:41:07.919Z,75.80
2022-10-16T23:43:36.041Z,73.27
2022-10-16T23:46:03.964Z,72.21
2022-10-16T23:48:31.430Z,71.45
2022-10-16T23:50:58.764Z,71.64
2022-10-16T23:53:26.435Z,71.54
2022-10-16T23:55:53.771Z,71.95
2022-10-16T23:58:21.407Z,72.49
